Date,TemperatureHighF,TemperatureAvgF,TemperatureLowF,DewpointHighF,DewpointAvgF,DewpointLowF,HumidityHigh,HumidityAvg,HumidityLow,PressureMaxIn,PressureMinIn,WindSpeedMaxMPH,WindSpeedAvgMPH,GustSpeedMaxMPH,PrecipitationSumIn
2012-12-1,46.2,35.0,26.7,36.9,30.2,24.7,92,83,69,30.35,30.14,5,1,7,0.03
2012-12-2,52.9,49.0,45.5,51.1,43.4,36.3,95,81,68,30.14,29.85,11,2,16,0.20
2012-12-3,52.3,45.3,41.8,45.1,40.9,38.3,92,85,70,30.19,30.03,4,0,6,0.00
2012-12-4,68.1,57.1,47.0,55.4,51.0,41.5,93,81,55,30.03,29.81,10,2,19,0.27
2012-12-5,47.0,35.6,29.1,41.8,26.2,16.9,86,69,57,30.34,29.89,13,2,18,0.01
2012-12-6,38.9,31.5,21.3,23.7,20.0,16.4,86,63,46,30.37,30.00,7,1,11,0.00
2012-12-7,44.9,40.2,35.9,38.4,31.7,19.1,90,72,48,29.99,29.89,7,1,11,0.00
2012-12-8,44.8,40.6,35.2,43.7,38.7,29.6,96,93,80,30.11,29.70,6,1,10,0.12
2012-12-9,42.3,34.2,29.1,40.8,29.5,24.5,95,83,74,30.26,29.72,10,2,12,0.25
2012-12-10,51.7,43.3,33.8,48.9,39.9,30.3,95,88,79,29.71,29.46,13,2,16,0.08
2012-12-11,33.8,28.9,23.5,30.1,24.4,20.2,91,83,78,30.14,29.69,4,0,12,0.00
2012-12-12,39.5,33.9,27.2,30.0,27.5,24.9,92,78,60,30.38,30.14,11,2,16,0.01
2012-12-13,45.8,33.8,24.1,27.1,23.6,20.5,88,68,42,30.41,30.15,9,1,9,0.00
2012-12-14,44.6,35.0,27.6,31.7,25.8,19.1,86,69,58,30.23,30.11,13,1,13,0.00
2012-12-15,39.6,34.6,28.2,32.0,29.9,24.6,93,83,72,30.27,29.93,10,1,11,0.00
2012-12-16,55.0,45.9,38.2,41.6,37.1,31.1,84,72,58,29.93,29.65,11,2,15,0.03
2012-12-17,47.3,45.6,43.9,45.2,42.4,40.4,94,88,80,29.69,29.49,6,1,9,0.25
2012-12-18,44.6,41.5,38.8,43.0,38.1,27.3,96,88,62,29.67,29.41,13,1,16,0.46
2012-12-19,42.8,36.5,30.9,33.2,29.6,25.1,92,76,56,30.15,29.67,7,2,13,0.00
2012-12-20,41.2,32.7,25.8,34.9,26.1,21.9,88,77,61,30.15,29.39,15,2,21,0.17
2012-12-21,41.1,35.2,29.3,36.3,32.9,27.5,94,91,80,29.39,29.14,13,3,18,0.35
2012-12-22,31.6,29.0,26.4,27.5,23.4,20.0,94,80,66,29.86,29.29,22,6,23,0.02
2012-12-23,35.2,31.5,27.9,25.9,23.7,17.6,86,73,61,29.96,29.74,14,4,19,0.02
2012-12-24,34.4,29.9,27.9,25.3,20.7,18.4,87,68,55,30.02,29.84,7,1,9,0.00
2012-12-25,31.6,28.9,27.8,27.4,24.7,23.2,92,85,72,30.30,29.86,6,1,9,0.01
2012-12-26,27.8,24.7,22.4,26.1,20.6,14.5,95,84,71,30.31,29.75,13,4,24,0.00
2012-12-27,27.8,24.9,23.0,26.8,23.3,21.0,96,94,92,30.00,29.67,14,2,23,0.00
2012-12-28,27.5,23.8,20.2,25.0,21.7,18.0,92,91,90,30.10,30.00,6,2,12,0.00
2012-12-29,28.4,24.6,17.3,26.9,22.9,14.9,94,93,90,30.00,29.64,4,0,5,0.00
2012-12-30,26.6,23.9,21.1,22.7,20.7,18.8,93,88,81,30.21,29.79,12,2,14,0.00
2012-12-31,33.7,30.1,25.1,28.5,25.0,21.7,89,81,73,30.15,29.80,17,5,19,0.00